Time;durP1;ratioP1;P1;durP2;ratioP2;P2;SDS_P1;SDS_P2;PMS_P1;PMS_P2;Temp;Humidity;BMP_temperature;BMP_pressure;BME280_temperature;BME280_humidity;BME280_pressure;Samples;Min_cycle;Max_cycle;Signal;HPM_P1;HPM_P2
2022/01/09 00:02:26;;;;;;;14.52;7.45;;;;;;;2.72;100.00;93905.09;10312540;28;20023;-74
2022/01/09 00:07:27;;;;;;;22.98;9.02;;;;;;;2.26;100.00;93913.22;10305372;28;20100;-73
2022/01/09 00:12:28;;;;;;;17.67;8.13;;;;;;;2.36;100.00;93917.88;10305160;28;20456;-73
2022/01/09 00:17:28;;;;;;;21.33;8.88;;;;;;;2.33;100.00;93926.28;10321606;28;20615;-77
2022/01/09 00:22:43;;;;;;;19.95;10.07;;;;;;;2.33;100.00;93910.38;10320504;28;20105;-74
2022/01/09 00:27:44;;;;;;;22.33;10.43;;;;;;;2.33;100.00;93905.06;10304380;28;20030;-73
2022/01/09 00:32:44;;;;;;;20.60;11.57;;;;;;;2.31;100.00;93909.81;10304359;28;20069;-73
2022/01/09 00:37:45;;;;;;;30.85;13.23;;;;;;;2.33;100.00;93902.41;10321957;28;20041;-80
2022/01/09 00:42:46;;;;;;;27.88;13.23;;;;;;;2.44;100.00;93904.16;10303772;28;20109;-74
2022/01/09 00:47:46;;;;;;;31.60;12.43;;;;;;;2.50;100.00;93892.59;10306206;28;20022;-74
2022/01/09 00:52:47;;;;;;;25.60;11.57;;;;;;;2.49;100.00;93884.91;10343979;28;20037;-74
2022/01/09 00:57:47;;;;;;;22.33;10.57;;;;;;;2.48;100.00;93891.25;10343402;28;20021;-73
2022/01/09 01:02:48;;;;;;;27.30;13.90;;;;;;;2.20;100.00;93901.69;10343619;28;20025;-73
2022/01/09 01:07:48;;;;;;;29.20;12.52;;;;;;;2.09;100.00;93917.69;10361283;28;20108;-73
2022/01/09 01:12:49;;;;;;;23.95;13.02;;;;;;;2.29;100.00;93896.81;10343033;28;20022;-73
2022/01/09 01:17:50;;;;;;;29.58;13.77;;;;;;;2.45;100.00;93879.25;10343525;28;20108;-72
2022/01/09 01:22:51;;;;;;;28.92;12.65;;;;;;;2.34;100.00;93873.00;10341911;28;20029;-73
2022/01/09 01:27:54;;;;;;;25.13;11.48;;;;;;;2.35;100.00;93873.81;10342612;28;20055;-75
2022/01/09 01:32:55;;;;;;;26.83;11.38;;;;;;;2.39;100.00;93865.13;10342214;28;20066;-73
2022/01/09 01:37:56;;;;;;;23.38;11.75;;;;;;;2.30;100.00;93866.59;10342706;28;20121;-78
2022/01/09 01:42:57;;;;;;;27.45;12.75;;;;;;;2.28;100.00;93862.59;10341795;28;20022;-77
2022/01/09 01:48:05;;;;;;;27.65;13.02;;;;;;;2.27;100.00;93855.66;10343162;28;20500;-80
2022/01/09 01:53:09;;;;;;;22.15;12.05;;;;;;;2.42;100.00;93844.50;10342976;28;20021;-74
2022/01/09 01:58:11;;;;;;;27.95;13.07;;;;;;;2.31;100.00;93836.38;10342022;28;20045;-74
2022/01/09 02:03:12;;;;;;;21.83;12.43;;;;;;;2.47;100.00;93818.03;10359646;28;20030;-74
2022/01/09 02:08:13;;;;;;;25.23;13.00;;;;;;;2.40;100.00;93831.47;10342278;28;20099;-77
2022/01/09 02:13:14;;;;;;;24.73;13.00;;;;;;;2.35;100.00;93820.78;10342770;28;20026;-73
2022/01/09 02:18:20;;;;;;;23.25;11.38;;;;;;;2.31;100.00;93803.75;10367968;28;20021;-75
2022/01/09 02:23:21;;;;;;;23.30;12.40;;;;;;;2.25;100.00;93812.69;10350520;28;20041;-74
2022/01/09 02:28:21;;;;;;;25.35;11.82;;;;;;;2.25;100.00;93794.94;10349817;28;20598;-78
2022/01/09 02:33:22;;;;;;;21.23;11.68;;;;;;;2.25;100.00;93788.81;10348866;28;20046;-74
2022/01/09 02:38:22;;;;;;;25.58;12.60;;;;;;;2.24;100.00;93779.28;10349235;28;20022;-76
2022/01/09 02:43:24;;;;;;;32.20;12.68;;;;;;;2.18;100.00;93779.22;10348596;28;20105;-73
2022/01/09 02:48:25;;;;;;;21.20;12.32;;;;;;;2.14;100.00;93774.66;10365826;28;20519;-74
2022/01/09 02:53:29;;;;;;;21.48;12.07;;;;;;;2.11;100.00;93752.06;10348925;28;20109;-75
2022/01/09 02:58:29;;;;;;;23.08;11.65;;;;;;;2.14;100.00;93772.00;10349017;28;20025;-72
2022/01/09 03:03:30;;;;;;;22.73;12.38;;;;;;;2.07;100.00;93764.22;10331743;28;20022;-74
2022/01/09 03:08:31;;;;;;;25.63;13.10;;;;;;;2.04;100.00;93756.75;10324038;28;20089;-73
2022/01/09 03:13:32;;;;;;;26.02;11.13;;;;;;;1.99;100.00;93754.03;10307851;28;20126;-80
2022/01/09 03:18:33;;;;;;;23.70;10.85;;;;;;;1.97;100.00;93748.97;10308193;28;20041;-72
2022/01/09 03:23:33;;;;;;;24.92;12.73;;;;;;;1.96;100.00;93738.63;10291487;28;20072;-73
2022/01/09 03:28:33;;;;;;;33.92;13.68;;;;;;;2.06;100.00;93738.75;10306701;28;20022;-73
2022/01/09 03:33:34;;;;;;;21.77;12.05;;;;;;;2.21;100.00;93738.16;10322284;28;20508;-73
2022/01/09 03:38:34;;;;;;;23.08;11.50;;;;;;;2.09;100.00;93743.56;10307242;28;20118;-80
2022/01/09 03:43:35;;;;;;;33.00;11.80;;;;;;;2.19;100.00;93737.59;10306925;28;20037;-77
2022/01/09 03:48:35;;;;;;;22.88;10.30;;;;;;;2.32;100.00;93734.59;10323511;28;20026;-77
2022/01/09 03:53:36;;;;;;;21.80;12.32;;;;;;;2.40;100.00;93733.38;10306540;28;20026;-78
2022/01/09 03:58:36;;;;;;;19.52;10.55;;;;;;;2.35;100.00;93720.81;10306149;28;20026;-74
2022/01/09 04:03:37;;;;;;;28.50;12.65;;;;;;;2.39;100.00;93718.50;10321604;28;20029;-74
2022/01/09 04:08:38;;;;;;;22.27;11.32;;;;;;;2.50;100.00;93727.38;10305877;28;20042;-77
2022/01/09 04:13:39;;;;;;;21.00;12.90;;;;;;;2.56;100.00;93721.88;10322876;28;20022;-73
2022/01/09 04:18:39;;;;;;;14.80;7.40;;;;;;;2.48;100.00;93726.81;10304755;28;20042;-73
2022/01/09 04:23:41;;;;;;;18.38;9.82;;;;;;;2.64;100.00;93722.50;10305362;28;20030;-78
2022/01/09 04:28:41;;;;;;;13.85;6.38;;;;;;;2.80;100.00;93710.97;10304519;28;20030;-76
2022/01/09 04:33:42;;;;;;;14.85;7.55;;;;;;;2.91;100.00;93715.34;10304434;28;20058;-73
2022/01/09 04:38:42;;;;;;;12.93;8.52;;;;;;;3.01;100.00;93698.72;10303817;28;20046;-72
2022/01/09 04:43:45;;;;;;;11.10;5.45;;;;;;;3.03;100.00;93698.47;10304569;28;20772;-77
2022/01/09 04:48:46;;;;;;;13.20;5.20;;;;;;;2.98;100.00;93704.53;10287389;28;20069;-73
2022/01/09 04:53:47;;;;;;;8.80;5.13;;;;;;;2.97;100.00;93710.88;10304111;28;20046;-73
2022/01/09 04:58:49;;;;;;;9.57;5.20;;;;;;;3.04;100.00;93706.19;10330082;28;20049;-76
2022/01/09 05:03:49;;;;;;;9.38;4.80;;;;;;;3.03;100.00;93717.84;10359053;28;20064;-74
2022/01/09 05:08:50;;;;;;;7.40;4.03;;;;;;;3.03;100.00;93707.22;10327174;28;20472;-73
2022/01/09 05:13:51;;;;;;;10.50;3.92;;;;;;;3.04;100.00;93708.03;10330466;28;20033;-75
2022/01/09 05:18:55;;;;;;;10.10;3.97;;;;;;;3.11;100.00;93711.28;10344346;28;20038;-73
2022/01/09 05:23:55;;;;;;;7.78;4.60;;;;;;;3.23;100.00;93713.78;10359856;28;20044;-73
2022/01/09 05:28:56;;;;;;;21.00;5.28;;;;;;;3.28;100.00;93700.56;10343587;28;20099;-79
2022/01/09 05:33:56;;;;;;;6.93;4.40;;;;;;;3.16;100.00;93689.28;10360791;28;20042;-76
2022/01/09 05:38:57;;;;;;;9.55;4.50;;;;;;;3.27;100.00;93684.88;10342965;28;20416;-73
2022/01/09 05:43:58;;;;;;;7.72;4.43;;;;;;;3.10;100.00;93688.44;10342500;28;20127;-73
2022/01/09 05:48:58;;;;;;;9.20;4.78;;;;;;;3.25;100.00;93698.38;10342005;28;20411;-73
2022/01/09 05:53:58;;;;;;;12.02;6.30;;;;;;;3.32;100.00;93700.84;10342391;28;20510;-73
2022/01/09 05:58:59;;;;;;;11.88;6.28;;;;;;;3.38;100.00;93699.84;10340982;28;20064;-74
2022/01/09 06:03:59;;;;;;;10.48;6.43;;;;;;;3.47;100.00;93700.16;10340775;28;20117;-75
2022/01/09 06:09:00;;;;;;;11.52;6.05;;;;;;;3.40;100.00;93690.56;10342779;28;20022;-78
2022/01/09 06:14:00;;;;;;;13.13;5.95;;;;;;;3.43;100.00;93689.22;10342132;28;20107;-74
2022/01/09 06:19:01;;;;;;;13.30;6.03;;;;;;;3.47;100.00;93692.97;10360412;28;20030;-77
2022/01/09 06:24:01;;;;;;;15.60;6.47;;;;;;;3.48;100.00;93688.50;10341740;28;20500;-78
2022/01/09 06:29:02;;;;;;;13.20;7.97;;;;;;;3.56;100.00;93691.47;10344209;28;20473;-79
2022/01/09 06:34:03;;;;;;;15.52;8.25;;;;;;;3.53;100.00;93691.97;10341480;28;20659;-75
2022/01/09 06:39:03;;;;;;;13.88;8.18;;;;;;;3.54;100.00;93682.94;10342795;28;20030;-76
2022/01/09 06:44:04;;;;;;;15.13;9.02;;;;;;;3.61;100.00;93687.25;10342912;28;20527;-75
2022/01/09 06:49:04;;;;;;;17.85;7.75;;;;;;;3.65;100.00;93680.38;10325200;28;20036;-76
2022/01/09 06:54:05;;;;;;;16.52;8.80;;;;;;;3.68;100.00;93679.84;10335595;28;20022;-74
2022/01/09 06:59:06;;;;;;;16.58;8.70;;;;;;;3.60;100.00;93683.81;10302185;28;20401;-75
2022/01/09 07:04:06;;;;;;;14.15;6.30;;;;;;;3.69;100.00;93668.16;10310011;28;20493;-72
2022/01/09 07:09:06;;;;;;;17.52;9.25;;;;;;;3.79;100.00;93680.72;10323396;28;20030;-75
2022/01/09 07:14:07;;;;;;;14.95;8.85;;;;;;;3.69;100.00;93668.16;10323904;28;20121;-73
2022/01/09 07:19:08;;;;;;;13.70;6.20;;;;;;;3.78;100.00;93669.28;10307915;28;20438;-76
2022/01/09 07:24:08;;;;;;;19.17;7.80;;;;;;;3.90;100.00;93685.81;10387954;22;20107;-76
2022/01/09 07:29:10;;;;;;;15.35;6.85;;;;;;;4.16;100.00;93696.63;10388045;28;20033;-77
2022/01/09 07:34:10;;;;;;;12.82;6.75;;;;;;;4.41;100.00;93700.44;10405141;28;20968;-74
2022/01/09 07:39:11;;;;;;;13.60;6.93;;;;;;;4.44;100.00;93695.41;10396763;28;20045;-76
2022/01/09 07:44:11;;;;;;;18.60;6.95;;;;;;;4.59;100.00;93686.69;10379299;28;20075;-77
2022/01/09 07:49:12;;;;;;;17.98;6.45;;;;;;;4.69;100.00;93677.09;10327246;28;20041;-78
2022/01/09 07:54:12;;;;;;;12.02;6.78;;;;;;;4.88;100.00;93683.53;10363315;28;20033;-77
2022/01/09 07:59:13;;;;;;;19.38;6.60;;;;;;;5.01;100.00;93666.28;10384082;28;20632;-76
2022/01/09 08:04:13;;;;;;;9.38;5.85;;;;;;;5.10;100.00;93662.00;10385269;28;20104;-73
2022/01/09 08:09:14;;;;;;;19.52;8.18;;;;;;;5.24;100.00;93658.84;10384972;28;20041;-76
2022/01/09 08:14:14;;;;;;;12.88;6.38;;;;;;;5.52;100.00;93670.81;10383193;28;20033;-72
2022/01/09 08:19:15;;;;;;;9.63;5.57;;;;;;;5.79;100.00;93641.19;10384012;28;20104;-72
2022/01/09 08:24:15;;;;;;;9.93;5.38;;;;;;;6.03;100.00;93643.31;10355662;28;20064;-76
2022/01/09 08:29:16;;;;;;;11.35;6.05;;;;;;;6.30;100.00;93629.59;10441048;28;20029;-76
2022/01/09 08:34:17;;;;;;;9.90;5.50;;;;;;;6.51;100.00;93626.81;10407701;28;20040;-80
2022/01/09 08:39:18;;;;;;;12.52;6.32;;;;;;;6.10;100.00;93643.03;10380463;28;20033;-74
2022/01/09 08:44:18;;;;;;;14.48;5.80;;;;;;;6.14;100.00;93625.41;10384890;28;20036;-72
2022/01/09 08:49:19;;;;;;;11.75;5.85;;;;;;;6.90;100.00;93618.06;10373270;28;20044;-74
2022/01/09 08:54:19;;;;;;;10.32;5.00;;;;;;;6.79;100.00;93627.22;10341821;28;20167;-73
2022/01/09 08:59:20;;;;;;;13.50;5.65;;;;;;;7.03;100.00;93627.31;10358716;28;20040;-81
2022/01/09 09:04:21;;;;;;;10.70;5.38;;;;;;;6.96;100.00;93616.16;10361415;28;20033;-78
2022/01/09 09:09:22;;;;;;;11.55;4.60;;;;;;;7.34;100.00;93605.72;10371402;28;20033;-73
2022/01/09 09:14:22;;;;;;;8.27;4.18;;;;;;;8.06;100.00;93594.28;10362681;28;20500;-73
2022/01/09 09:19:25;;;;;;;12.07;4.63;;;;;;;8.85;100.00;93583.13;10328882;28;20411;-77
2022/01/09 09:24:25;;;;;;;8.77;3.95;;;;;;;9.75;100.00;93572.28;10363168;28;20496;-73
2022/01/09 09:29:26;;;;;;;11.73;4.60;;;;;;;10.63;100.00;93545.63;10341554;28;20040;-76
2022/01/09 09:34:26;;;;;;;8.02;4.10;;;;;;;11.42;92.77;93555.06;10358372;28;20040;-76
2022/01/09 09:39:27;;;;;;;7.75;3.97;;;;;;;11.03;91.49;93533.13;10340634;28;20461;-73
2022/01/09 09:44:27;;;;;;;9.13;3.80;;;;;;;11.24;87.54;93524.56;10340941;28;20532;-77
2022/01/09 09:49:28;;;;;;;5.65;3.15;;;;;;;10.90;92.40;93523.25;10388913;28;20268;-74
2022/01/09 09:54:28;;;;;;;11.40;4.47;;;;;;;10.20;95.20;93518.00;10399343;28;20021;-73
2022/01/09 09:59:36;;;;;;;13.37;4.93;;;;;;;9.49;100.00;93512.94;10357045;28;20034;-73
2022/01/09 10:04:37;;;;;;;6.63;3.80;;;;;;;9.35;100.00;93504.88;10341411;28;20276;-72
2022/01/09 10:09:51;;;;;;;6.93;3.72;;;;;;;9.16;100.00;93514.88;10356529;28;20026;-72
2022/01/09 10:14:54;;;;;;;7.35;3.13;;;;;;;8.78;100.00;93493.53;10340390;28;20030;-73
2022/01/09 10:20:12;;;;;;;8.35;3.72;;;;;;;8.69;100.00;93498.72;10340690;28;20124;-73
2022/01/09 10:25:18;;;;;;;7.97;3.78;;;;;;;8.89;100.00;93498.41;10340320;28;20053;-77
2022/01/09 10:30:23;;;;;;;5.55;2.70;;;;;;;8.89;100.00;93486.91;10357653;28;20052;-72
2022/01/09 10:35:25;;;;;;;9.02;3.88;;;;;;;9.11;100.00;93477.41;10390048;28;20188;-74
2022/01/09 10:40:29;;;;;;;11.38;4.95;;;;;;;9.99;100.00;93457.78;10387722;28;20061;-74
2022/01/09 10:45:31;;;;;;;8.35;4.90;;;;;;;11.73;93.29;93452.78;10354247;28;20077;-74
2022/01/09 10:50:36;;;;;;;6.22;3.10;;;;;;;11.60;84.39;93449.09;10331088;28;20030;-75
2022/01/09 10:55:36;;;;;;;5.53;3.42;;;;;;;12.41;79.70;93460.56;10348243;28;20032;-74
2022/01/09 11:00:37;;;;;;;9.07;3.73;;;;;;;12.13;77.21;93442.00;10363824;28;20032;-73
2022/01/09 11:05:38;;;;;;;6.97;2.67;;;;;;;11.94;78.72;93433.41;10346592;28;20289;-73
2022/01/09 11:10:40;;;;;;;7.30;3.05;;;;;;;11.54;82.08;93434.22;10366613;28;20021;-78
2022/01/09 11:16:32;;;;;;;5.45;3.30;;;;;;;12.21;79.77;93432.34;10403979;28;20488;-74
2022/01/09 11:21:01;;;;;;;8.90;4.07;;;;;;;12.95;72.70;93419.03;10395990;28;20478;-76
2022/01/09 11:26:11;;;;;;;5.38;2.70;;;;;;;14.11;63.38;93406.31;10379041;28;20053;-76
2022/01/09 11:31:33;;;;;;;5.85;3.00;;;;;;;13.65;62.22;93413.41;10386316;28;20120;-74
2022/01/09 11:36:50;;;;;;;6.70;3.22;;;;;;;12.57;66.49;93412.41;10356898;28;20456;-73
2022/01/09 11:42:08;;;;;;;6.93;3.47;;;;;;;12.40;73.09;93413.16;10366318;28;20506;-76
2022/01/09 11:47:09;;;;;;;7.45;4.05;;;;;;;11.97;75.78;93413.91;10385975;28;20021;-78
2022/01/09 11:52:09;;;;;;;9.73;3.78;;;;;;;12.50;72.83;93413.97;10384919;28;20021;-77
2022/01/09 11:57:14;;;;;;;7.97;3.58;;;;;;;13.23;65.62;93399.72;10388866;28;20033;-75
2022/01/09 12:02:27;;;;;;;14.18;5.53;;;;;;;12.45;70.86;93406.84;10403877;28;20021;-78
2022/01/09 12:07:34;;;;;;;16.27;6.25;;;;;;;11.46;77.72;93411.53;10385492;28;20090;-76
2022/01/09 12:12:36;;;;;;;14.80;5.95;;;;;;;10.80;86.57;93394.47;10403014;28;20087;-76
2022/01/09 12:17:39;;;;;;;10.95;5.00;;;;;;;10.04;96.69;93395.94;10360875;28;20057;-71
2022/01/09 12:22:47;;;;;;;12.38;5.53;;;;;;;9.53;100.00;93389.75;10343286;28;20037;-77
2022/01/09 12:28:15;;;;;;;10.20;5.25;;;;;;;8.68;100.00;93393.47;10361547;28;20048;-77
2022/01/09 12:33:20;;;;;;;12.45;6.78;;;;;;;8.12;100.00;93397.00;10371026;28;20056;-78
2022/01/09 12:38:23;;;;;;;19.42;5.90;;;;;;;8.20;100.00;93383.78;10365306;28;20026;-75
2022/01/09 12:43:25;;;;;;;16.40;6.47;;;;;;;8.30;100.00;93385.50;10343494;28;20037;-76
2022/01/09 12:48:27;;;;;;;14.57;6.32;;;;;;;8.36;100.00;93376.28;10343794;28;20712;-77
2022/01/09 12:53:29;;;;;;;9.95;4.35;;;;;;;8.30;100.00;93372.13;10342718;28;20034;-76
2022/01/09 12:58:40;;;;;;;11.48;4.35;;;;;;;8.30;100.00;93369.44;10361021;28;20029;-75
2022/01/09 13:03:41;;;;;;;9.50;3.78;;;;;;;7.97;100.00;93369.41;10358799;28;20029;-72
2022/01/09 13:08:47;;;;;;;6.85;3.15;;;;;;;7.78;100.00;93368.63;10353649;28;20029;-71
2022/01/09 13:13:49;;;;;;;9.85;4.43;;;;;;;7.61;100.00;93367.22;10359345;28;20064;-76
2022/01/09 13:18:51;;;;;;;5.80;3.63;;;;;;;7.49;100.00;93365.00;10358966;28;20026;-75
2022/01/09 13:24:05;;;;;;;8.93;3.88;;;;;;;7.41;100.00;93370.97;10370937;28;20136;-71
2022/01/09 13:29:21;;;;;;;13.77;4.22;;;;;;;7.31;100.00;93363.06;10382811;28;20521;-77
2022/01/09 13:34:42;;;;;;;9.57;4.95;;;;;;;7.31;100.00;93366.56;10383266;28;20032;-76
2022/01/09 13:39:47;;;;;;;8.73;4.53;;;;;;;7.21;100.00;93358.63;10382452;28;20035;-76
2022/01/09 13:45:00;;;;;;;10.45;4.88;;;;;;;7.21;100.00;93355.19;10382197;28;20022;-76
2022/01/09 13:50:02;;;;;;;8.07;4.15;;;;;;;7.18;100.00;93345.84;10365826;28;20025;-76
2022/01/09 13:55:07;;;;;;;13.50;3.95;;;;;;;6.92;100.00;93351.50;10365672;28;20069;-78
2022/01/09 14:00:10;;;;;;;8.02;4.53;;;;;;;6.81;100.00;93358.03;10346076;28;20030;-78
2022/01/09 14:05:13;;;;;;;11.10;5.07;;;;;;;6.91;100.00;93343.78;10340453;28;20037;-76
2022/01/09 14:10:13;;;;;;;10.68;4.82;;;;;;;7.08;100.00;93340.66;10350639;28;20026;-77
2022/01/09 14:15:20;;;;;;;13.07;4.95;;;;;;;7.07;100.00;93344.38;10349310;28;20026;-77
2022/01/09 14:20:23;;;;;;;8.40;4.90;;;;;;;6.77;100.00;93355.13;10348390;28;20059;-77
2022/01/09 14:25:32;;;;;;;9.65;4.95;;;;;;;6.60;100.00;93352.91;10365256;28;20085;-77
2022/01/09 14:30:34;;;;;;;6.90;4.43;;;;;;;6.37;100.00;93365.13;10352786;28;20510;-77
2022/01/09 14:35:45;;;;;;;8.90;5.07;;;;;;;6.26;100.00;93369.72;10389159;28;20067;-75
2022/01/09 14:40:51;;;;;;;26.27;6.72;;;;;;;6.27;100.00;93359.88;10361723;28;20037;-76
2022/01/09 14:45:53;;;;;;;14.75;5.93;;;;;;;6.37;100.00;93361.66;10378428;28;20033;-76
2022/01/09 14:50:54;;;;;;;11.25;5.47;;;;;;;6.21;100.00;93353.78;10405065;28;20025;-76
2022/01/09 14:55:57;;;;;;;14.80;6.97;;;;;;;6.08;100.00;93347.19;10372173;28;20026;-75
2022/01/09 15:00:58;;;;;;;16.17;7.50;;;;;;;6.05;100.00;93346.97;10388777;28;20026;-77
2022/01/09 15:05:59;;;;;;;17.23;6.68;;;;;;;6.05;100.00;93352.31;10388607;28;20103;-76
2022/01/09 15:11:00;;;;;;;14.57;7.05;;;;;;;6.04;100.00;93353.38;10387418;28;20482;-71
2022/01/09 15:16:01;;;;;;;15.23;6.15;;;;;;;6.02;100.00;93350.22;10405288;28;20117;-75
2022/01/09 15:21:01;;;;;;;11.60;6.30;;;;;;;5.79;100.00;93355.94;10386196;28;20037;-70
2022/01/09 15:26:02;;;;;;;14.10;6.97;;;;;;;5.75;100.00;93351.41;10385665;28;20080;-76
2022/01/09 15:31:05;;;;;;;15.52;6.82;;;;;;;5.67;100.00;93350.16;10362490;28;20521;-71
2022/01/09 15:36:05;;;;;;;18.92;8.82;;;;;;;5.59;100.00;93348.06;10377642;28;20030;-71
2022/01/09 15:41:06;;;;;;;18.05;8.13;;;;;;;5.55;100.00;93350.47;10386399;28;20072;-78
2022/01/09 15:46:07;;;;;;;17.13;6.70;;;;;;;5.43;100.00;93347.38;10383247;28;20026;-77
2022/01/09 15:51:08;;;;;;;17.88;7.97;;;;;;;5.30;100.00;93354.06;10468310;22;20376;-75
2022/01/09 15:56:11;;;;;;;16.77;7.68;;;;;;;5.17;100.00;93344.81;10386233;28;20103;-76
2022/01/09 16:01:17;;;;;;;17.13;8.95;;;;;;;5.05;100.00;93347.00;10402952;28;20083;-79
2022/01/09 16:06:21;;;;;;;17.70;8.80;;;;;;;4.85;100.00;93342.56;10385613;28;20084;-75
2022/01/09 16:11:22;;;;;;;16.15;7.65;;;;;;;4.70;100.00;93351.38;10385555;28;20116;-77
2022/01/09 16:16:22;;;;;;;15.85;7.93;;;;;;;4.60;100.00;93349.53;10385624;28;20031;-74
2022/01/09 16:21:23;;;;;;;20.30;8.30;;;;;;;4.66;100.00;93347.66;10403697;28;20036;-71
2022/01/09 16:26:24;;;;;;;20.08;8.07;;;;;;;4.65;100.00;93344.22;10385033;28;20033;-76
2022/01/09 16:31:24;;;;;;;23.73;9.13;;;;;;;4.53;100.00;93357.00;10383607;28;20137;-76
2022/01/09 16:36:26;;;;;;;26.35;10.27;;;;;;;4.59;100.00;93355.91;10375007;28;20788;-77
2022/01/09 16:41:26;;;;;;;20.90;10.10;;;;;;;4.56;100.00;93357.28;10364650;28;20021;-73
2022/01/09 16:46:27;;;;;;;26.85;11.77;;;;;;;4.24;100.00;93366.34;10365054;28;20033;-78
2022/01/09 16:51:27;;;;;;;25.05;11.48;;;;;;;4.31;100.00;93360.75;10336677;28;20162;-75
2022/01/09 16:56:28;;;;;;;22.20;10.05;;;;;;;4.19;100.00;93353.06;10302417;28;20041;-79
2022/01/09 17:01:29;;;;;;;22.48;11.07;;;;;;;4.26;100.00;93352.78;10318458;28;20030;-72
2022/01/09 17:06:30;;;;;;;25.88;10.73;;;;;;;4.24;100.00;93360.22;10320504;28;20030;-77
2022/01/09 17:11:31;;;;;;;27.23;12.27;;;;;;;4.32;100.00;93367.66;10319163;28;20061;-78
2022/01/09 17:16:31;;;;;;;24.33;10.63;;;;;;;4.37;100.00;93361.56;10301984;28;20088;-77
2022/01/09 17:21:32;;;;;;;23.50;10.13;;;;;;;4.32;100.00;93348.25;10342647;28;20065;-77
2022/01/09 17:26:32;;;;;;;21.55;9.40;;;;;;;4.34;100.00;93360.22;10359696;28;20080;-75
2022/01/09 17:31:33;;;;;;;21.75;10.57;;;;;;;4.30;100.00;93343.22;10358110;28;20038;-70
2022/01/09 17:36:34;;;;;;;17.63;9.30;;;;;;;4.33;100.00;93348.00;10358812;28;20025;-74
2022/01/09 17:41:35;;;;;;;21.85;9.35;;;;;;;4.29;100.00;93357.56;10341447;28;20034;-72
2022/01/09 17:46:35;;;;;;;14.23;7.20;;;;;;;4.24;100.00;93361.03;10357911;28;20034;-75
2022/01/09 17:51:36;;;;;;;19.77;9.15;;;;;;;4.23;100.00;93366.63;10310527;28;20055;-77
2022/01/09 17:56:37;;;;;;;20.98;8.60;;;;;;;4.13;100.00;93361.31;10318550;28;20042;-71
2022/01/09 18:01:37;;;;;;;19.48;9.23;;;;;;;4.16;100.00;93363.41;10340992;28;20030;-75
2022/01/09 18:06:37;;;;;;;21.25;9.32;;;;;;;4.10;100.00;93354.66;10358592;28;20117;-76
2022/01/09 18:11:38;;;;;;;18.63;8.27;;;;;;;4.13;100.00;93348.00;10341025;28;20033;-74
2022/01/09 18:16:39;;;;;;;20.88;8.98;;;;;;;4.11;100.00;93350.94;10357315;28;20268;-71
2022/01/09 18:21:40;;;;;;;22.85;10.10;;;;;;;4.04;100.00;93350.41;10341117;28;20040;-74
2022/01/09 18:26:44;;;;;;;23.65;10.07;;;;;;;3.96;100.00;93351.72;10321078;28;20037;-71
2022/01/09 18:31:44;;;;;;;21.58;8.32;;;;;;;4.15;100.00;93361.84;10338894;28;20018;-70
2022/01/09 18:36:45;;;;;;;24.98;11.05;;;;;;;3.93;100.00;93355.75;10357340;28;20033;-75
2022/01/09 18:41:46;;;;;;;23.70;10.43;;;;;;;3.82;100.00;93351.44;10340793;28;20028;-77
2022/01/09 18:46:47;;;;;;;28.08;12.05;;;;;;;3.79;100.00;93344.00;10342265;28;20393;-72
2022/01/09 18:51:47;;;;;;;25.08;10.60;;;;;;;3.80;100.00;93345.63;10319139;28;20038;-74
2022/01/09 18:56:48;;;;;;;22.83;10.23;;;;;;;3.88;100.00;93358.38;10321476;28;20130;-71
2022/01/09 19:01:49;;;;;;;24.65;10.13;;;;;;;4.00;100.00;93344.03;10308015;28;20129;-71
2022/01/09 19:06:50;;;;;;;32.50;11.77;;;;;;;3.93;100.00;93344.28;10332491;28;20091;-71
2022/01/09 19:11:50;;;;;;;26.88;11.18;;;;;;;3.96;100.00;93343.75;10320000;28;20124;-72
2022/01/09 19:16:50;;;;;;;25.30;10.30;;;;;;;3.93;100.00;93353.06;10346496;28;20032;-72
2022/01/09 19:21:51;;;;;;;29.65;11.93;;;;;;;3.93;100.00;93334.47;10339685;28;20892;-72
2022/01/09 19:26:53;;;;;;;28.27;10.98;;;;;;;3.97;100.00;93329.41;10311531;28;20034;-71
2022/01/09 19:31:53;;;;;;;29.67;11.85;;;;;;;3.97;100.00;93339.25;10305176;28;20027;-71
2022/01/09 19:36:54;;;;;;;31.77;12.30;;;;;;;3.86;100.00;93328.59;10340735;28;20088;-70
2022/01/09 19:41:54;;;;;;;29.85;13.70;;;;;;;3.97;100.00;93323.31;10344860;28;20390;-71
2022/01/09 19:46:56;;;;;;;29.10;12.55;;;;;;;4.03;100.00;93317.72;10334432;28;20101;-70
2022/01/09 19:51:59;;;;;;;20.88;10.95;;;;;;;4.08;100.00;93299.09;10360293;28;20042;-75
2022/01/09 19:56:59;;;;;;;17.05;8.30;;;;;;;4.05;100.00;93306.81;10341864;28;20049;-71
2022/01/09 20:02:00;;;;;;;19.08;7.78;;;;;;;4.07;100.00;93288.72;10322016;28;20497;-75
2022/01/09 20:07:00;;;;;;;18.30;6.63;;;;;;;4.09;100.00;93297.25;10345036;28;20084;-74
2022/01/09 20:12:03;;;;;;;15.98;6.50;;;;;;;4.04;100.00;93290.06;10343610;28;20056;-71
2022/01/09 20:17:06;;;;;;;17.02;7.10;;;;;;;4.05;100.00;93296.19;10345000;28;20042;-71
2022/01/09 20:22:07;;;;;;;11.63;6.38;;;;;;;4.13;100.00;93290.31;10369366;28;20061;-76
2022/01/09 20:27:08;;;;;;;13.82;6.30;;;;;;;4.15;100.00;93285.53;10320961;28;20037;-72
2022/01/09 20:32:11;;;;;;;15.65;6.43;;;;;;;4.17;100.00;93287.91;10342795;28;20025;-75
2022/01/09 20:37:12;;;;;;;15.23;8.02;;;;;;;4.26;100.00;93286.31;10344241;28;20034;-75
2022/01/09 20:42:12;;;;;;;16.75;8.05;;;;;;;4.21;100.00;93292.41;10361557;28;20499;-77
2022/01/09 20:47:13;;;;;;;15.73;5.60;;;;;;;4.16;100.00;93284.47;10343193;28;20463;-70
2022/01/09 20:52:13;;;;;;;13.85;5.65;;;;;;;4.13;100.00;93285.00;10318948;28;20050;-71
2022/01/09 20:57:17;;;;;;;6.65;3.65;;;;;;;4.16;100.00;93287.13;10318310;28;20030;-71
2022/01/09 21:02:17;;;;;;;16.30;6.45;;;;;;;4.19;100.00;93280.47;10352744;28;20032;-71
2022/01/09 21:07:18;;;;;;;10.93;4.75;;;;;;;4.23;100.00;93273.56;10361292;28;20063;-68
2022/01/09 21:12:18;;;;;;;13.45;4.97;;;;;;;4.23;100.00;93274.34;10327198;28;20411;-76
2022/01/09 21:17:19;;;;;;;6.97;3.80;;;;;;;4.33;100.00;93273.53;10343734;28;20036;-71
2022/01/09 21:22:20;;;;;;;6.88;3.55;;;;;;;4.38;100.00;93275.38;10342202;28;20518;-71
2022/01/09 21:27:20;;;;;;;4.45;2.40;;;;;;;4.36;100.00;93262.34;10360040;28;20456;-71
2022/01/09 21:32:21;;;;;;;7.07;3.70;;;;;;;4.33;100.00;93260.22;10323228;28;20054;-72
2022/01/09 21:37:21;;;;;;;7.38;3.53;;;;;;;4.19;100.00;93256.53;10302164;28;20497;-71
2022/01/09 21:42:22;;;;;;;6.82;3.60;;;;;;;4.15;100.00;93256.28;10318367;28;20026;-70
2022/01/09 21:47:25;;;;;;;8.25;4.10;;;;;;;4.19;100.00;93267.19;10319913;28;20037;-70
2022/01/09 21:52:26;;;;;;;8.43;3.83;;;;;;;4.22;100.00;93266.63;10301760;28;20046;-70
2022/01/09 21:57:29;;;;;;;8.57;3.45;;;;;;;4.35;100.00;93254.63;10302184;28;20488;-70
2022/01/09 22:02:30;;;;;;;11.23;3.95;;;;;;;4.38;100.00;93246.09;10318548;28;20022;-78
2022/01/09 22:07:31;;;;;;;6.18;2.40;;;;;;;4.45;100.00;93239.44;10302073;28;20551;-75
2022/01/09 22:12:31;;;;;;;1.95;1.35;;;;;;;4.58;100.00;93234.63;10434598;22;20056;-70
2022/01/09 22:17:32;;;;;;;2.75;1.58;;;;;;;4.68;100.00;93234.56;10354643;28;20034;-74
2022/01/09 22:22:32;;;;;;;2.90;1.17;;;;;;;4.80;100.00;93234.25;10359272;28;20411;-70
2022/01/09 22:27:33;;;;;;;3.50;2.03;;;;;;;4.90;100.00;93246.72;10341828;28;20030;-75
2022/01/09 22:32:34;;;;;;;4.50;2.10;;;;;;;4.73;100.00;93239.06;10362500;28;20113;-76
2022/01/09 22:37:34;;;;;;;3.80;2.10;;;;;;;4.70;100.00;93247.59;10349558;28;20033;-73
2022/01/09 22:42:35;;;;;;;5.15;2.53;;;;;;;4.75;100.00;93239.59;10349386;28;20095;-73
2022/01/09 22:47:37;;;;;;;5.78;2.45;;;;;;;4.82;100.00;93232.09;10366033;28;20201;-69
2022/01/09 22:52:37;;;;;;;8.13;3.22;;;;;;;4.79;100.00;93230.00;10365338;28;20029;-74
2022/01/09 22:57:38;;;;;;;5.80;2.90;;;;;;;4.76;100.00;93228.66;10366270;28;20399;-70
2022/01/09 23:02:38;;;;;;;5.07;2.38;;;;;;;4.77;100.00;93229.44;10401326;28;20389;-70
2022/01/09 23:07:39;;;;;;;6.63;2.78;;;;;;;4.75;100.00;93221.75;10389997;28;20029;-74